createdAt,value
2017-07-02T00:01:50.499Z,4.80
2017-07-02T00:04:18.835Z,4.20
2017-07-02T00:06:47.933Z,4.93
2017-07-02T00:09:16.234Z,4.50
2017-07-02T00:11:44.577Z,4.60
2017-07-02T00:14:12.884Z,4.50
2017-07-02T00:16:41.214Z,4.93
2017-07-02T00:19:09.513Z,5.80
2017-07-02T00:21:37.852Z,6.03
2017-07-02T00:24:06.917Z,5.10
2017-07-02T00:26:35.231Z,5.47
2017-07-02T00:29:03.550Z,5.73
2017-07-02T00:31:31.850Z,5.80
2017-07-02T00:34:00.187Z,5.40
2017-07-02T00:36:28.500Z,5.97
2017-07-02T00:38:57.569Z,6.07
2017-07-02T00:41:25.897Z,6.33
2017-07-02T00:43:54.279Z,6.27
2017-07-02T00:46:22.609Z,6.70
2017-07-02T00:48:51.010Z,6.00
2017-07-02T00:51:19.337Z,7.27
2017-07-02T00:53:48.407Z,6.50
2017-07-02T00:56:16.748Z,5.13
2017-07-02T00:58:45.120Z,6.33
2017-07-02T01:01:13.446Z,6.50
2017-07-02T01:03:41.777Z,6.57
2017-07-02T01:06:10.858Z,6.90
2017-07-02T01:08:39.188Z,9.20
2017-07-02T01:11:07.492Z,6.80
2017-07-02T01:13:35.821Z,8.10
2017-07-02T01:16:04.900Z,6.40
2017-07-02T01:18:33.254Z,7.97
2017-07-02T01:34:04.905Z,7.97
2017-07-02T01:36:33.198Z,6.53
2017-07-02T01:39:01.513Z,8.17
2017-07-02T01:41:29.839Z,9.20
2017-07-02T01:43:58.937Z,9.03
2017-07-02T01:46:27.286Z,7.70
2017-07-02T01:48:55.587Z,6.87
2017-07-02T01:51:23.925Z,7.20
2017-07-02T01:53:52.249Z,6.83
2017-07-02T01:56:20.562Z,7.93
2017-07-02T01:58:48.897Z,6.43
2017-07-02T02:01:35.691Z,6.20
2017-07-02T02:04:04.064Z,7.77
2017-07-02T02:06:32.351Z,7.23
2017-07-02T02:09:00.659Z,8.40
2017-07-02T02:11:28.991Z,8.40
2017-07-02T02:13:57.337Z,7.33
2017-07-02T02:16:25.632Z,7.80
2017-07-02T02:18:54.701Z,12.20
2017-07-02T02:21:23.011Z,12.60
2017-07-02T02:23:51.330Z,12.97
2017-07-02T02:26:19.672Z,9.83
2017-07-02T02:28:48.743Z,8.30
2017-07-02T02:31:17.099Z,10.40
2017-07-02T02:33:46.162Z,9.70
2017-07-02T02:36:14.468Z,8.23
2017-07-02T02:38:42.805Z,10.10
2017-07-02T02:41:11.120Z,11.13
2017-07-02T02:43:40.224Z,9.60
2017-07-02T02:46:08.593Z,8.60
2017-07-02T02:48:36.965Z,7.47
2017-07-02T02:51:05.325Z,11.70
2017-07-02T02:53:33.632Z,10.60
2017-07-02T02:56:01.953Z,12.73
2017-07-02T02:58:30.296Z,10.90
2017-07-02T03:00:58.612Z,10.60
2017-07-02T03:03:27.126Z,11.87
2017-07-02T03:05:55.473Z,13.23
2017-07-02T03:08:23.805Z,10.57
2017-07-02T03:10:52.109Z,12.40
2017-07-02T03:13:20.461Z,13.03
2017-07-02T03:15:48.773Z,13.33
2017-07-02T03:18:17.085Z,12.93
2017-07-02T03:20:45.437Z,11.80
2017-07-02T03:23:13.752Z,9.27
2017-07-02T03:25:42.064Z,10.90
2017-07-02T03:28:10.414Z,10.87
2017-07-02T03:30:38.730Z,9.90
2017-07-02T03:33:07.040Z,11.27
2017-07-02T03:35:35.389Z,13.97
2017-07-02T03:38:03.694Z,16.13
2017-07-02T03:40:31.993Z,15.17
2017-07-02T03:43:00.332Z,14.90
2017-07-02T03:45:28.641Z,13.27
2017-07-02T03:47:57.718Z,14.97
2017-07-02T03:50:26.096Z,16.47
2017-07-02T03:52:54.401Z,15.00
2017-07-02T03:55:22.704Z,14.43
2017-07-02T03:57:51.036Z,14.80
2017-07-02T04:00:19.341Z,17.40
2017-07-02T04:02:48.032Z,17.27
2017-07-02T04:05:16.345Z,14.30
2017-07-02T04:07:44.677Z,16.07
2017-07-02T04:10:13.045Z,16.43
2017-07-02T04:12:41.357Z,15.93
2017-07-02T04:15:09.661Z,15.63
2017-07-02T04:17:37.999Z,18.37
2017-07-02T04:20:06.361Z,17.10
2017-07-02T04:22:34.666Z,16.60
2017-07-02T04:25:02.984Z,17.77
2017-07-02T04:27:31.340Z,16.87
2017-07-02T04:30:00.406Z,19.60
2017-07-02T04:32:28.757Z,19.20
2017-07-02T04:34:58.789Z,18.77
2017-07-02T04:37:27.169Z,17.60
2017-07-02T04:39:55.476Z,16.07
2017-07-02T04:42:24.071Z,17.20
2017-07-02T04:44:52.409Z,17.83
2017-07-02T04:47:20.753Z,16.57
2017-07-02T04:49:49.852Z,17.03
2017-07-02T04:52:18.173Z,17.60
2017-07-02T04:54:47.233Z,17.10
2017-07-02T04:57:15.584Z,18.70
2017-07-02T04:59:43.947Z,17.43
2017-07-02T05:02:12.253Z,16.73
2017-07-02T05:04:40.603Z,17.43
2017-07-02T05:07:09.668Z,15.93
2017-07-02T05:09:38.005Z,16.83
2017-07-02T05:12:06.352Z,16.90
2017-07-02T05:14:34.653Z,14.63
2017-07-02T05:17:02.958Z,18.60
2017-07-02T05:19:31.305Z,16.27
2017-07-02T05:21:59.647Z,17.27
2017-07-02T05:24:27.971Z,16.90
2017-07-02T05:26:56.320Z,15.80
2017-07-02T05:29:24.636Z,13.90
2017-07-02T05:31:53.862Z,12.47
2017-07-02T05:34:22.932Z,14.10
2017-07-02T05:36:51.642Z,13.73
2017-07-02T05:39:20.049Z,14.87
2017-07-02T05:41:48.353Z,14.30
2017-07-02T05:44:16.689Z,14.90
2017-07-02T05:46:45.802Z,13.70
2017-07-02T05:49:14.099Z,12.90
2017-07-02T05:51:42.409Z,15.83
2017-07-02T05:54:11.521Z,13.27
2017-07-02T05:56:39.821Z,15.93
2017-07-02T05:59:08.131Z,14.20
2017-07-02T06:01:36.465Z,14.30
2017-07-02T06:04:04.774Z,16.13
2017-07-02T06:06:33.074Z,13.60
2017-07-02T06:09:01.406Z,16.70
2017-07-02T06:11:29.770Z,13.27
2017-07-02T06:13:58.074Z,15.60
2017-07-02T06:16:26.385Z,15.23
2017-07-02T06:18:54.720Z,15.50
2017-07-02T06:21:23.332Z,13.93
2017-07-02T06:23:51.625Z,14.67
2017-07-02T06:26:19.959Z,14.30
2017-07-02T06:28:48.365Z,14.37
2017-07-02T06:31:16.709Z,13.30
2017-07-02T06:33:45.777Z,12.67
2017-07-02T06:36:14.085Z,15.93
2017-07-02T06:38:42.424Z,14.13
2017-07-02T06:41:10.722Z,12.70
2017-07-02T06:43:39.030Z,16.00
2017-07-02T06:46:07.369Z,11.83
2017-07-02T06:48:35.662Z,15.47
2017-07-02T06:51:03.966Z,13.83
2017-07-02T06:53:32.355Z,12.73
2017-07-02T06:56:00.707Z,13.03
2017-07-02T06:58:29.013Z,13.73
2017-07-02T07:00:57.390Z,14.00
2017-07-02T07:03:25.773Z,13.00
2017-07-02T07:05:54.879Z,11.67
2017-07-02T07:08:23.193Z,12.47
2017-07-02T07:10:52.258Z,13.60
2017-07-02T07:13:20.608Z,11.10
2017-07-02T07:15:49.674Z,11.73
2017-07-02T07:18:17.973Z,10.50
2017-07-02T07:20:46.308Z,9.30
2017-07-02T07:23:14.608Z,10.60
2017-07-02T07:25:42.941Z,9.90
2017-07-02T07:28:12.006Z,10.87
2017-07-02T07:30:40.346Z,11.47
2017-07-02T07:33:08.653Z,10.83
2017-07-02T07:35:36.954Z,10.90
2017-07-02T07:38:05.291Z,10.00
2017-07-02T07:40:33.591Z,11.73
2017-07-02T07:43:02.691Z,12.43
2017-07-02T07:45:30.991Z,10.63
2017-07-02T07:47:59.351Z,10.30
2017-07-02T07:50:27.654Z,11.10
2017-07-02T07:52:56.082Z,11.93
2017-07-02T07:55:24.435Z,10.23
2017-07-02T07:57:53.538Z,10.10
2017-07-02T08:00:22.631Z,10.60
2017-07-02T08:02:50.980Z,10.33
2017-07-02T08:05:19.276Z,8.50
2017-07-02T08:07:48.337Z,8.40
2017-07-02T08:10:16.672Z,9.10
2017-07-02T08:12:44.997Z,8.77
2017-07-02T08:15:14.064Z,10.03
2017-07-02T08:17:42.474Z,8.73
2017-07-02T08:20:10.828Z,8.30
2017-07-02T08:22:39.894Z,8.50
2017-07-02T08:25:08.202Z,7.67
2017-07-02T08:27:36.537Z,9.40
2017-07-02T08:30:05.417Z,7.37
2017-07-02T08:32:33.762Z,8.40
2017-07-02T08:35:02.061Z,7.57
2017-07-02T08:37:30.458Z,7.80
2017-07-02T08:39:58.821Z,7.17
2017-07-02T08:42:27.137Z,8.03
2017-07-02T08:44:55.445Z,8.27
2017-07-02T08:47:23.789Z,7.30
2017-07-02T08:49:52.859Z,7.80
2017-07-02T08:52:21.154Z,6.80
2017-07-02T08:54:49.497Z,7.50
2017-07-02T08:57:17.802Z,6.80
2017-07-02T08:59:46.145Z,7.13
2017-07-02T09:02:14.443Z,6.87
2017-07-02T09:04:42.742Z,8.23
2017-07-02T09:07:11.081Z,6.47
2017-07-02T09:09:39.380Z,7.10
2017-07-02T09:12:07.675Z,6.43
2017-07-02T09:14:36.006Z,8.10
2017-07-02T09:17:04.303Z,6.00
2017-07-02T09:19:32.605Z,6.83
2017-07-02T09:22:02.889Z,7.17
2017-07-02T09:24:31.249Z,7.13
2017-07-02T09:26:59.562Z,6.47
2017-07-02T09:29:28.774Z,6.73
2017-07-02T09:31:57.131Z,5.60
2017-07-02T09:34:26.242Z,7.00
2017-07-02T09:36:55.580Z,6.20
2017-07-02T09:39:24.711Z,5.53
2017-07-02T09:41:53.013Z,6.43
2017-07-02T09:44:21.309Z,4.97
2017-07-02T09:46:50.404Z,5.40
2017-07-02T09:49:18.696Z,5.40
2017-07-02T09:51:46.993Z,5.60
2017-07-02T09:54:15.323Z,4.70
2017-07-02T09:56:43.629Z,10.80
2017-07-02T09:59:11.958Z,7.63
2017-07-02T10:01:41.021Z,6.33
2017-07-02T10:04:09.320Z,5.97
2017-07-02T10:06:37.645Z,4.60
2017-07-02T10:09:05.950Z,4.17
2017-07-02T10:11:34.273Z,5.00
2017-07-02T10:14:02.626Z,4.00
2017-07-02T10:16:30.919Z,3.93
2017-07-02T10:18:59.215Z,4.17
2017-07-02T10:21:28.308Z,4.80
2017-07-02T10:23:56.598Z,4.10
2017-07-02T10:26:24.898Z,5.20
2017-07-02T10:28:53.239Z,3.77
2017-07-02T10:31:21.566Z,3.93
2017-07-02T10:33:49.965Z,3.80
2017-07-02T10:36:18.255Z,4.07
2017-07-02T10:38:46.605Z,3.53
2017-07-02T10:41:14.903Z,3.40
2017-07-02T10:43:43.250Z,3.70
2017-07-02T10:46:11.578Z,4.20
2017-07-02T10:48:39.924Z,3.73
2017-07-02T10:51:08.216Z,3.13
2017-07-02T10:53:36.513Z,4.00
2017-07-02T10:56:04.845Z,3.67
2017-07-02T10:58:33.907Z,3.03
2017-07-02T11:01:02.206Z,3.33
2017-07-02T11:03:30.531Z,3.60
2017-07-02T11:05:58.884Z,3.27
2017-07-02T11:08:27.937Z,3.20
2017-07-02T11:10:56.238Z,4.07
2017-07-02T11:13:24.577Z,3.47
2017-07-02T11:15:52.869Z,3.50
2017-07-02T11:18:21.161Z,3.17
2017-07-02T11:20:49.496Z,3.43
2017-07-02T11:23:18.562Z,3.80
2017-07-02T11:25:46.873Z,3.53
2017-07-02T11:28:15.201Z,3.20
2017-07-02T11:30:43.500Z,3.90
2017-07-02T11:33:11.853Z,4.00
2017-07-02T11:35:40.909Z,3.60
2017-07-02T11:38:09.201Z,4.70
2017-07-02T11:40:37.569Z,4.20
2017-07-02T11:43:05.865Z,4.90
2017-07-02T11:45:34.161Z,3.87
2017-07-02T11:48:02.484Z,3.40
2017-07-02T11:50:30.773Z,4.50
2017-07-02T11:52:59.453Z,3.40
2017-07-02T11:55:28.021Z,3.60
2017-07-02T11:57:57.101Z,4.83
2017-07-02T12:00:25.460Z,3.10
2017-07-02T12:02:53.750Z,3.63
2017-07-02T12:05:22.816Z,2.97
2017-07-02T12:07:51.166Z,2.97
2017-07-02T12:10:20.246Z,3.30
2017-07-02T12:12:48.541Z,3.47
2017-07-02T12:15:16.875Z,2.80
2017-07-02T12:17:45.200Z,3.20
2017-07-02T12:20:13.584Z,2.60
2017-07-02T12:22:41.872Z,3.20
2017-07-02T12:25:10.171Z,2.60
2017-07-02T12:27:38.507Z,2.70
2017-07-02T12:30:06.808Z,2.60
2017-07-02T12:32:35.156Z,2.47
2017-07-02T12:35:03.442Z,2.47
2017-07-02T12:37:31.745Z,2.20
2017-07-02T12:40:00.089Z,2.60
2017-07-02T12:42:28.389Z,1.93
2017-07-02T12:44:56.773Z,2.13
2017-07-02T12:47:25.085Z,2.10
2017-07-02T12:49:53.388Z,2.10
2017-07-02T12:52:21.740Z,2.10
2017-07-02T12:54:50.803Z,2.10
2017-07-02T12:57:19.105Z,1.80
2017-07-02T12:59:47.451Z,1.97
2017-07-02T13:02:15.760Z,1.90
2017-07-02T13:04:44.058Z,1.93
2017-07-02T13:07:12.388Z,1.13
2017-07-02T13:09:40.692Z,1.60
2017-07-02T13:12:09.045Z,1.70
2017-07-02T13:14:37.343Z,1.23
2017-07-02T13:17:06.146Z,1.37
2017-07-02T13:19:34.481Z,1.43
2017-07-02T13:22:04.970Z,1.83
2017-07-02T13:24:34.041Z,1.50
2017-07-02T13:27:02.342Z,1.50
2017-07-02T13:29:30.639Z,1.70
2017-07-02T13:31:59.087Z,2.00
2017-07-02T13:34:27.403Z,1.77
2017-07-02T13:36:55.697Z,1.30
2017-07-02T13:39:24.037Z,1.43
2017-07-02T13:41:52.350Z,1.30
2017-07-02T13:44:20.677Z,1.30
2017-07-02T13:46:49.006Z,1.60
2017-07-02T13:49:18.070Z,1.60
2017-07-02T13:51:46.369Z,1.50
2017-07-02T13:54:14.699Z,1.50
2017-07-02T13:56:43.045Z,1.70
2017-07-02T13:59:11.350Z,1.70
2017-07-02T14:01:39.653Z,1.57
2017-07-02T14:04:08.141Z,1.47
2017-07-02T14:06:36.430Z,1.43
2017-07-02T14:09:04.723Z,1.33
2017-07-02T14:11:33.064Z,1.80
2017-07-02T14:14:01.501Z,1.63
2017-07-02T14:16:29.837Z,2.00
2017-07-02T14:18:58.204Z,2.00
2017-07-02T14:21:26.522Z,1.57
2017-07-02T14:23:54.822Z,1.80
2017-07-02T14:26:23.162Z,1.83
2017-07-02T14:28:51.516Z,1.57
2017-07-02T14:31:19.875Z,1.93
2017-07-02T14:33:48.173Z,2.10
2017-07-02T14:36:16.530Z,2.20
2017-07-02T14:38:44.854Z,2.30
2017-07-02T14:41:13.153Z,2.43
2017-07-02T14:43:41.496Z,3.57
2017-07-02T14:46:10.566Z,2.87
2017-07-02T14:48:38.881Z,1.60
2017-07-02T14:51:07.225Z,1.40
2017-07-02T14:53:36.306Z,1.50
2017-07-02T14:56:04.633Z,1.50
2017-07-02T14:58:32.977Z,2.03
2017-07-02T15:01:01.276Z,1.50
2017-07-02T15:03:29.590Z,1.90
2017-07-02T15:05:57.938Z,1.73
2017-07-02T15:08:26.234Z,1.73
2017-07-02T15:10:54.536Z,2.47
2017-07-02T15:13:22.876Z,2.07
2017-07-02T15:15:51.192Z,1.70
2017-07-02T15:18:19.563Z,1.70
2017-07-02T15:20:48.629Z,1.87
2017-07-02T15:23:16.921Z,1.77
2017-07-02T15:25:45.274Z,1.60
2017-07-02T15:28:13.637Z,1.60
2017-07-02T15:30:41.929Z,3.63
2017-07-02T15:33:10.234Z,2.50
2017-07-02T15:35:39.336Z,2.10
2017-07-02T15:38:07.642Z,5.90
2017-07-02T15:40:36.698Z,3.60
2017-07-02T15:43:05.022Z,2.20
2017-07-02T15:45:33.312Z,2.10
2017-07-02T15:48:01.645Z,1.67
2017-07-02T15:50:29.984Z,2.00
2017-07-02T15:52:59.053Z,1.60
2017-07-02T15:55:27.364Z,1.80
2017-07-02T15:57:55.715Z,1.50
2017-07-02T16:00:24.789Z,1.70
2017-07-02T16:02:53.089Z,1.93
2017-07-02T16:05:21.445Z,1.70
2017-07-02T16:07:50.517Z,1.90
2017-07-02T16:10:18.814Z,1.93
2017-07-02T16:12:47.235Z,1.97
2017-07-02T16:15:15.562Z,1.83
2017-07-02T16:17:43.872Z,1.70
2017-07-02T16:20:13.818Z,1.70
2017-07-02T16:22:42.111Z,1.80
2017-07-02T16:25:10.445Z,1.80
2017-07-02T16:27:39.518Z,1.80
2017-07-02T16:30:07.916Z,2.10
2017-07-02T16:32:36.253Z,1.60
2017-07-02T16:35:04.550Z,2.33
2017-07-02T16:37:32.841Z,2.43
2017-07-02T16:40:01.249Z,2.60
2017-07-02T16:42:29.546Z,2.60
2017-07-02T16:44:57.842Z,2.50
2017-07-02T16:47:26.176Z,2.70
2017-07-02T16:49:54.481Z,5.67
2017-07-02T16:52:23.527Z,8.63
2017-07-02T16:54:51.853Z,3.57
2017-07-02T16:57:20.269Z,6.60
2017-07-02T16:59:48.601Z,5.30
2017-07-02T17:02:16.913Z,5.80
2017-07-02T17:04:45.233Z,5.17
2017-07-02T17:07:13.561Z,3.40
2017-07-02T17:09:41.856Z,3.70
2017-07-02T17:12:10.190Z,2.27
2017-07-02T17:14:39.261Z,2.90
2017-07-02T17:17:07.557Z,2.67
2017-07-02T17:19:35.892Z,2.87
2017-07-02T17:22:04.189Z,2.53
2017-07-02T17:24:32.482Z,2.33
2017-07-02T17:27:00.833Z,2.70
2017-07-02T17:29:29.128Z,2.20
2017-07-02T17:31:58.261Z,1.80
2017-07-02T17:34:26.559Z,1.50
2017-07-02T17:36:54.854Z,3.80
2017-07-02T17:39:23.182Z,2.53
2017-07-02T17:41:52.238Z,2.77
2017-07-02T17:44:20.568Z,4.30
2017-07-02T17:46:48.873Z,3.00
2017-07-02T17:49:17.221Z,3.70
2017-07-02T17:51:45.520Z,12.77
2017-07-02T17:54:13.816Z,5.00
2017-07-02T17:56:42.148Z,3.37
2017-07-02T17:59:10.492Z,3.37
2017-07-02T18:01:38.813Z,3.00
2017-07-02T18:04:07.116Z,2.93
2017-07-02T18:06:35.470Z,3.50
2017-07-02T18:09:03.767Z,2.53
2017-07-02T18:11:32.057Z,2.50
2017-07-02T18:14:00.408Z,2.40
2017-07-02T18:16:28.704Z,2.20
2017-07-02T18:18:57.073Z,2.90
2017-07-02T18:21:25.368Z,2.20
2017-07-02T18:23:53.667Z,2.87
2017-07-02T18:26:22.000Z,2.37
2017-07-02T18:28:52.543Z,2.43
2017-07-02T18:31:20.897Z,1.87
2017-07-02T18:33:50.015Z,2.63
2017-07-02T18:36:18.426Z,3.93
2017-07-02T18:38:46.761Z,3.03
2017-07-02T18:41:15.089Z,2.10
2017-07-02T18:43:43.384Z,2.40
2017-07-02T18:46:11.736Z,2.37
2017-07-02T18:48:40.846Z,2.40
2017-07-02T18:51:09.152Z,1.83
2017-07-02T18:53:37.475Z,2.40
2017-07-02T18:56:06.537Z,2.60
2017-07-02T18:58:34.878Z,2.00
2017-07-02T19:01:03.195Z,2.40
2017-07-02T19:03:32.325Z,2.27
2017-07-02T19:06:00.671Z,2.23
2017-07-02T19:08:28.998Z,3.10
2017-07-02T19:10:57.344Z,2.97
2017-07-02T19:13:25.633Z,2.70
2017-07-02T19:15:53.925Z,2.13
2017-07-02T19:18:23.019Z,2.00
2017-07-02T19:20:51.325Z,2.20
2017-07-02T19:23:19.660Z,2.70
2017-07-02T19:25:48.760Z,2.50
2017-07-02T19:28:17.052Z,2.23
2017-07-02T19:30:45.427Z,1.90
2017-07-02T19:33:13.735Z,3.00
2017-07-02T19:35:42.038Z,2.80
2017-07-02T19:38:10.374Z,2.83
2017-07-02T19:40:38.671Z,2.83
2017-07-02T19:43:06.973Z,2.27
2017-07-02T19:45:35.329Z,2.77
2017-07-02T19:48:03.644Z,2.53
2017-07-02T19:50:32.003Z,2.07
2017-07-02T19:53:01.071Z,2.50
2017-07-02T19:55:29.444Z,2.60
2017-07-02T19:57:57.742Z,2.13
2017-07-02T20:00:26.070Z,2.40
2017-07-02T20:02:55.235Z,2.47
2017-07-02T20:05:23.537Z,2.50
2017-07-02T20:07:51.868Z,3.10
2017-07-02T20:10:20.165Z,2.63
2017-07-02T20:12:49.272Z,2.63
2017-07-02T20:15:17.574Z,2.50
2017-07-02T20:17:45.881Z,2.30
2017-07-02T20:20:15.002Z,2.50
2017-07-02T20:22:44.060Z,2.83
2017-07-02T20:25:12.354Z,2.23
2017-07-02T20:27:40.684Z,3.07
2017-07-02T20:30:08.992Z,2.40
2017-07-02T20:32:37.325Z,2.60
2017-07-02T20:35:05.621Z,2.80
2017-07-02T20:37:33.919Z,2.93
2017-07-02T20:40:02.293Z,2.70
2017-07-02T20:42:30.637Z,2.30
2017-07-02T20:44:58.961Z,2.00
2017-07-02T20:47:27.254Z,4.90
2017-07-02T20:49:55.596Z,3.47
2017-07-02T20:52:23.915Z,2.60
2017-07-02T20:54:52.209Z,2.13
2017-07-02T20:57:20.555Z,2.10
2017-07-02T20:59:48.860Z,2.20
2017-07-02T21:02:17.216Z,3.60
2017-07-02T21:04:45.538Z,2.10
2017-07-02T21:07:13.974Z,2.00
2017-07-02T21:09:42.311Z,1.90
2017-07-02T21:12:11.388Z,2.47
2017-07-02T21:14:39.688Z,2.13
2017-07-02T21:17:08.021Z,2.13
2017-07-02T21:19:36.340Z,2.07
2017-07-02T21:22:05.443Z,1.67
2017-07-02T21:24:33.841Z,1.87
2017-07-02T21:27:02.157Z,1.80
2017-07-02T21:29:30.455Z,1.60
2017-07-02T21:31:58.773Z,1.40
2017-07-02T21:34:27.896Z,1.90
2017-07-02T21:36:56.975Z,1.83
2017-07-02T21:39:25.273Z,1.80
2017-07-02T21:41:53.617Z,2.00
2017-07-02T21:44:21.905Z,1.60
2017-07-02T21:46:50.198Z,2.00
2017-07-02T21:49:18.518Z,1.70
2017-07-02T21:51:46.841Z,1.77
2017-07-02T21:54:15.189Z,1.40
2017-07-02T21:56:42.767Z,1.60
2017-07-02T21:59:11.117Z,2.00
2017-07-02T22:01:39.455Z,2.10
2017-07-02T22:04:07.747Z,2.70
2017-07-02T22:06:36.046Z,1.60
2017-07-02T22:09:04.374Z,1.73
2017-07-02T22:11:33.430Z,1.97
2017-07-02T22:14:01.762Z,1.60
2017-07-02T22:16:30.981Z,1.60
2017-07-02T22:18:59.374Z,1.80
2017-07-02T22:21:27.703Z,2.10
2017-07-02T22:23:56.049Z,1.53
2017-07-02T22:26:24.341Z,1.93
2017-07-02T22:28:52.635Z,1.50
2017-07-02T22:31:21.734Z,2.10
2017-07-02T22:33:50.068Z,2.10
2017-07-02T22:36:18.375Z,2.20
2017-07-02T22:38:46.674Z,2.17
2017-07-02T22:41:15.011Z,1.60
2017-07-02T22:43:43.411Z,1.90
2017-07-02T22:46:11.716Z,1.97
2017-07-02T22:48:40.043Z,1.77
2017-07-02T22:51:08.336Z,1.93
2017-07-02T22:53:36.665Z,2.17
2017-07-02T22:56:05.000Z,2.13
2017-07-02T22:58:33.309Z,1.70
2017-07-02T23:01:02.374Z,2.13
2017-07-02T23:03:30.733Z,1.90
2017-07-02T23:05:59.030Z,2.20
2017-07-02T23:08:28.085Z,2.60
2017-07-02T23:10:56.425Z,2.33
2017-07-02T23:13:24.720Z,2.53
2017-07-02T23:15:53.101Z,2.67
2017-07-02T23:18:21.411Z,2.50
2017-07-02T23:20:49.709Z,2.30
2017-07-02T23:23:18.086Z,2.33
2017-07-02T23:25:47.156Z,2.60
2017-07-02T23:28:15.462Z,2.30
2017-07-02T23:30:43.789Z,2.23
2017-07-02T23:33:12.089Z,2.20
2017-07-02T23:35:40.386Z,2.60
2017-07-02T23:38:08.723Z,2.90
2017-07-02T23:40:37.017Z,2.70
2017-07-02T23:43:05.306Z,2.77
2017-07-02T23:45:33.648Z,2.40
2017-07-02T23:48:01.939Z,2.40
2017-07-02T23:50:30.241Z,2.03
2017-07-02T23:52:58.583Z,3.23
2017-07-02T23:55:26.875Z,3.00
2017-07-02T23:57:55.931Z,2.30
